Utsunomiya, Japan
Current Conditions -  °F | °C
As of 2:27 AM on Sunday 26 Oct 2014 (Local Time) from RJAH Reporting Station
Broken Clouds Broken Clouds  
Wind Chill: 55°   Ceiling: 4500
Heat Index: 55°   Visibility: 6mi
Dew Point: 54°   Wind: 2mph
Humidity: 94%   Direction: NA
Pressure: 30.15"   Gusts: NA
Location:  36.56°N, 139.89°E
Report Text: RJAH 251727Z VRB02KT 9999 FEW015 SCT030 BKN045 13/12 Q1021 RMK 1CU015 3CU030 5SC045 A3015 VIS SW 7KM
Loading
Personal Weather Stations






























Interactive Weather Map
Tropical Storm Tracking
New forecast layout! Learn more

10-Day Weather Forecast

Advertisements
Track Severe Weather on mobile